sensor_id;sensor_type;location;lat;lon;timestamp;temperature;humidity
63537;DHT22;49686;51.880;5.632;2024-02-26T00:01:56;6.50;99.90
63537;DHT22;49686;51.880;5.632;2024-02-26T00:04:24;6.50;99.90
63537;DHT22;49686;51.880;5.632;2024-02-26T00:06:50;6.50;99.90
63537;DHT22;49686;51.880;5.632;2024-02-26T00:09:18;6.50;99.90
63537;DHT22;49686;51.880;5.632;2024-02-26T00:11:45;6.50;99.90
63537;DHT22;49686;51.880;5.632;2024-02-26T00:14:13;6.50;99.90
63537;DHT22;49686;51.880;5.632;2024-02-26T00:16:40;6.40;99.90
63537;DHT22;49686;51.880;5.632;2024-02-26T00:19:08;6.40;99.90
63537;DHT22;49686;51.880;5.632;2024-02-26T00:21:39;6.40;99.90
63537;DHT22;49686;51.880;5.632;2024-02-26T00:24:06;6.40;99.90
63537;DHT22;49686;51.880;5.632;2024-02-26T00:26:36;6.40;99.90
63537;DHT22;49686;51.880;5.632;2024-02-26T00:29:03;6.40;99.90
63537;DHT22;49686;51.880;5.632;2024-02-26T00:31:30;6.40;99.90
63537;DHT22;49686;51.880;5.632;2024-02-26T00:33:57;6.50;99.90
63537;DHT22;49686;51.880;5.632;2024-02-26T00:36:26;6.40;99.90
63537;DHT22;49686;51.880;5.632;2024-02-26T00:38:53;6.40;99.90
63537;DHT22;49686;51.880;5.632;2024-02-26T00:41:20;6.50;99.90
63537;DHT22;49686;51.880;5.632;2024-02-26T00:43:49;6.50;99.90
63537;DHT22;49686;51.880;5.632;2024-02-26T00:46:16;6.50;99.90
63537;DHT22;49686;51.880;5.632;2024-02-26T00:48:43;6.50;99.90
63537;DHT22;49686;51.880;5.632;2024-02-26T00:51:10;6.60;99.90
63537;DHT22;49686;51.880;5.632;2024-02-26T00:53:39;6.60;99.90
63537;DHT22;49686;51.880;5.632;2024-02-26T00:56:07;6.60;99.90
63537;DHT22;49686;51.880;5.632;2024-02-26T00:58:33;6.60;99.90
63537;DHT22;49686;51.880;5.632;2024-02-26T01:01:00;6.60;99.90
63537;DHT22;49686;51.880;5.632;2024-02-26T01:03:27;6.60;99.90
63537;DHT22;49686;51.880;5.632;2024-02-26T01:05:54;6.60;99.90
63537;DHT22;49686;51.880;5.632;2024-02-26T01:08:25;6.70;99.90
63537;DHT22;49686;51.880;5.632;2024-02-26T01:10:53;6.60;99.90
63537;DHT22;49686;51.880;5.632;2024-02-26T01:13:20;6.60;99.90
63537;DHT22;49686;51.880;5.632;2024-02-26T01:15:47;6.60;99.90
63537;DHT22;49686;51.880;5.632;2024-02-26T01:18:14;6.60;99.90
63537;DHT22;49686;51.880;5.632;2024-02-26T01:20:41;6.60;99.90
63537;DHT22;49686;51.880;5.632;2024-02-26T01:23:08;6.60;99.90
63537;DHT22;49686;51.880;5.632;2024-02-26T01:25:35;6.60;99.90
63537;DHT22;49686;51.880;5.632;2024-02-26T01:28:03;6.60;99.90
63537;DHT22;49686;51.880;5.632;2024-02-26T01:30:35;6.60;99.90
63537;DHT22;49686;51.880;5.632;2024-02-26T01:33:02;6.60;99.90
63537;DHT22;49686;51.880;5.632;2024-02-26T01:35:29;6.60;99.90
63537;DHT22;49686;51.880;5.632;2024-02-26T01:37:56;6.60;99.90
63537;DHT22;49686;51.880;5.632;2024-02-26T01:40:24;6.60;99.90
63537;DHT22;49686;51.880;5.632;2024-02-26T01:42:53;6.70;99.90
63537;DHT22;49686;51.880;5.632;2024-02-26T01:45:22;6.60;99.90
63537;DHT22;49686;51.880;5.632;2024-02-26T01:47:49;6.70;99.90
63537;DHT22;49686;51.880;5.632;2024-02-26T01:50:17;6.70;99.90
63537;DHT22;49686;51.880;5.632;2024-02-26T01:52:44;6.70;99.90
63537;DHT22;49686;51.880;5.632;2024-02-26T01:55:12;6.70;99.90
63537;DHT22;49686;51.880;5.632;2024-02-26T01:57:39;6.70;99.90
63537;DHT22;49686;51.880;5.632;2024-02-26T02:00:07;6.70;99.90
63537;DHT22;49686;51.880;5.632;2024-02-26T02:02:36;6.80;99.90
63537;DHT22;49686;51.880;5.632;2024-02-26T02:05:05;6.80;99.90
63537;DHT22;49686;51.880;5.632;2024-02-26T02:07:32;6.80;99.90
63537;DHT22;49686;51.880;5.632;2024-02-26T02:09:59;6.80;99.90
63537;DHT22;49686;51.880;5.632;2024-02-26T02:12:27;6.80;99.90
63537;DHT22;49686;51.880;5.632;2024-02-26T02:14:54;6.80;99.90
63537;DHT22;49686;51.880;5.632;2024-02-26T02:17:21;6.90;99.90
63537;DHT22;49686;51.880;5.632;2024-02-26T02:19:49;6.90;99.90
63537;DHT22;49686;51.880;5.632;2024-02-26T02:22:18;6.90;99.90
63537;DHT22;49686;51.880;5.632;2024-02-26T02:24:45;6.90;99.90
63537;DHT22;49686;51.880;5.632;2024-02-26T02:27:12;6.90;99.90
63537;DHT22;49686;51.880;5.632;2024-02-26T02:29:39;6.90;99.90
63537;DHT22;49686;51.880;5.632;2024-02-26T02:32:06;6.90;99.90
63537;DHT22;49686;51.880;5.632;2024-02-26T02:34:33;6.90;99.90
63537;DHT22;49686;51.880;5.632;2024-02-26T02:37:00;6.90;99.90
63537;DHT22;49686;51.880;5.632;2024-02-26T02:39:28;6.90;99.90
63537;DHT22;49686;51.880;5.632;2024-02-26T02:41:55;6.80;99.90
63537;DHT22;49686;51.880;5.632;2024-02-26T02:44:22;6.90;99.90
63537;DHT22;49686;51.880;5.632;2024-02-26T02:46:49;6.90;99.90
63537;DHT22;49686;51.880;5.632;2024-02-26T02:49:16;6.80;99.90
63537;DHT22;49686;51.880;5.632;2024-02-26T02:51:43;6.80;99.90
63537;DHT22;49686;51.880;5.632;2024-02-26T02:54:10;6.80;99.90
63537;DHT22;49686;51.880;5.632;2024-02-26T02:56:39;6.80;99.90
63537;DHT22;49686;51.880;5.632;2024-02-26T02:59:06;6.80;99.90
63537;DHT22;49686;51.880;5.632;2024-02-26T03:01:32;6.80;99.90
63537;DHT22;49686;51.880;5.632;2024-02-26T03:03:59;6.70;99.90
63537;DHT22;49686;51.880;5.632;2024-02-26T03:06:29;6.70;99.90
63537;DHT22;49686;51.880;5.632;2024-02-26T03:08:56;6.70;99.90
63537;DHT22;49686;51.880;5.632;2024-02-26T03:11:23;6.70;99.90
63537;DHT22;49686;51.880;5.632;2024-02-26T03:13:51;6.70;99.90
63537;DHT22;49686;51.880;5.632;2024-02-26T03:16:18;6.70;99.90
63537;DHT22;49686;51.880;5.632;2024-02-26T03:18:45;6.60;99.90
63537;DHT22;49686;51.880;5.632;2024-02-26T03:21:12;6.60;99.90
63537;DHT22;49686;51.880;5.632;2024-02-26T03:23:39;6.60;99.90
63537;DHT22;49686;51.880;5.632;2024-02-26T03:26:08;6.70;99.90
63537;DHT22;49686;51.880;5.632;2024-02-26T03:28:35;6.60;99.90
63537;DHT22;49686;51.880;5.632;2024-02-26T03:31:03;6.60;99.90
63537;DHT22;49686;51.880;5.632;2024-02-26T03:33:30;6.60;99.90
63537;DHT22;49686;51.880;5.632;2024-02-26T03:35:57;6.60;99.90
63537;DHT22;49686;51.880;5.632;2024-02-26T03:38:24;6.60;99.90
63537;DHT22;49686;51.880;5.632;2024-02-26T03:40:51;6.60;99.90
63537;DHT22;49686;51.880;5.632;2024-02-26T03:43:18;6.60;99.90
63537;DHT22;49686;51.880;5.632;2024-02-26T03:45:44;6.60;99.90
63537;DHT22;49686;51.880;5.632;2024-02-26T03:48:13;6.60;99.90
63537;DHT22;49686;51.880;5.632;2024-02-26T03:50:40;6.60;99.90
63537;DHT22;49686;51.880;5.632;2024-02-26T03:53:07;6.60;99.90
63537;DHT22;49686;51.880;5.632;2024-02-26T03:55:38;6.60;99.90
63537;DHT22;49686;51.880;5.632;2024-02-26T03:58:05;6.60;99.90
63537;DHT22;49686;51.880;5.632;2024-02-26T04:00:32;6.60;99.90
63537;DHT22;49686;51.880;5.632;2024-02-26T04:02:59;6.60;99.90
63537;DHT22;49686;51.880;5.632;2024-02-26T04:05:27;6.60;99.90
63537;DHT22;49686;51.880;5.632;2024-02-26T04:07:57;6.60;99.90
63537;DHT22;49686;51.880;5.632;2024-02-26T04:10:24;6.50;99.90
63537;DHT22;49686;51.880;5.632;2024-02-26T04:12:51;6.50;99.90
63537;DHT22;49686;51.880;5.632;2024-02-26T04:15:17;6.60;99.90
63537;DHT22;49686;51.880;5.632;2024-02-26T04:17:45;6.50;99.90
63537;DHT22;49686;51.880;5.632;2024-02-26T04:20:14;6.50;99.90
63537;DHT22;49686;51.880;5.632;2024-02-26T04:22:44;6.50;99.90
63537;DHT22;49686;51.880;5.632;2024-02-26T04:25:11;6.50;99.90
63537;DHT22;49686;51.880;5.632;2024-02-26T04:27:39;6.50;99.90
63537;DHT22;49686;51.880;5.632;2024-02-26T04:30:06;6.50;99.90
63537;DHT22;49686;51.880;5.632;2024-02-26T04:32:34;6.50;99.90
63537;DHT22;49686;51.880;5.632;2024-02-26T04:35:03;6.50;99.90
63537;DHT22;49686;51.880;5.632;2024-02-26T04:37:30;6.50;99.90
63537;DHT22;49686;51.880;5.632;2024-02-26T04:40:00;6.40;99.90
63537;DHT22;49686;51.880;5.632;2024-02-26T04:42:29;6.40;99.90
63537;DHT22;49686;51.880;5.632;2024-02-26T04:44:58;6.40;99.90
63537;DHT22;49686;51.880;5.632;2024-02-26T04:47:25;6.30;99.90
63537;DHT22;49686;51.880;5.632;2024-02-26T04:49:52;6.30;99.90
63537;DHT22;49686;51.880;5.632;2024-02-26T04:52:19;6.40;99.90
63537;DHT22;49686;51.880;5.632;2024-02-26T04:54:46;6.30;99.90
63537;DHT22;49686;51.880;5.632;2024-02-26T04:57:14;6.30;99.90
63537;DHT22;49686;51.880;5.632;2024-02-26T04:59:41;6.30;99.90
63537;DHT22;49686;51.880;5.632;2024-02-26T05:02:08;6.20;99.90
63537;DHT22;49686;51.880;5.632;2024-02-26T05:04:35;6.20;99.90
63537;DHT22;49686;51.880;5.632;2024-02-26T05:07:02;6.20;99.90
63537;DHT22;49686;51.880;5.632;2024-02-26T05:09:29;6.20;99.90
63537;DHT22;49686;51.880;5.632;2024-02-26T05:11:56;6.20;99.90
63537;DHT22;49686;51.880;5.632;2024-02-26T05:14:24;6.20;99.90
63537;DHT22;49686;51.880;5.632;2024-02-26T05:16:52;6.10;99.90
63537;DHT22;49686;51.880;5.632;2024-02-26T05:19:18;6.10;99.90
63537;DHT22;49686;51.880;5.632;2024-02-26T05:21:45;6.10;99.90
63537;DHT22;49686;51.880;5.632;2024-02-26T05:24:12;6.10;99.90
63537;DHT22;49686;51.880;5.632;2024-02-26T05:26:39;6.00;99.90
63537;DHT22;49686;51.880;5.632;2024-02-26T05:29:06;6.10;99.90
63537;DHT22;49686;51.880;5.632;2024-02-26T05:31:35;6.00;99.90
63537;DHT22;49686;51.880;5.632;2024-02-26T05:34:01;6.00;99.90
63537;DHT22;49686;51.880;5.632;2024-02-26T05:36:29;6.10;99.90
63537;DHT22;49686;51.880;5.632;2024-02-26T05:38:55;6.10;99.90
63537;DHT22;49686;51.880;5.632;2024-02-26T05:41:22;6.10;99.90
63537;DHT22;49686;51.880;5.632;2024-02-26T05:43:50;6.10;99.90
63537;DHT22;49686;51.880;5.632;2024-02-26T05:46:17;6.00;99.90
63537;DHT22;49686;51.880;5.632;2024-02-26T05:48:47;6.10;99.90
63537;DHT22;49686;51.880;5.632;2024-02-26T05:51:15;6.10;99.90
63537;DHT22;49686;51.880;5.632;2024-02-26T05:53:42;6.00;99.90
63537;DHT22;49686;51.880;5.632;2024-02-26T05:56:09;6.00;99.90
63537;DHT22;49686;51.880;5.632;2024-02-26T05:58:36;6.00;99.90
63537;DHT22;49686;51.880;5.632;2024-02-26T06:01:03;6.00;99.90
63537;DHT22;49686;51.880;5.632;2024-02-26T06:03:30;6.00;99.90
63537;DHT22;49686;51.880;5.632;2024-02-26T06:05:58;6.00;99.90
63537;DHT22;49686;51.880;5.632;2024-02-26T06:08:25;6.00;99.90
63537;DHT22;49686;51.880;5.632;2024-02-26T06:10:52;5.90;99.90
63537;DHT22;49686;51.880;5.632;2024-02-26T06:13:19;5.90;99.90
63537;DHT22;49686;51.880;5.632;2024-02-26T06:15:46;6.00;99.90
63537;DHT22;49686;51.880;5.632;2024-02-26T06:18:13;5.90;99.90
63537;DHT22;49686;51.880;5.632;2024-02-26T06:20:40;5.90;99.90
63537;DHT22;49686;51.880;5.632;2024-02-26T06:23:09;5.90;99.90
63537;DHT22;49686;51.880;5.632;2024-02-26T06:25:35;5.90;99.90
63537;DHT22;49686;51.880;5.632;2024-02-26T06:28:03;5.90;99.90
63537;DHT22;49686;51.880;5.632;2024-02-26T06:30:29;5.90;99.90
63537;DHT22;49686;51.880;5.632;2024-02-26T06:32:57;6.00;99.90
63537;DHT22;49686;51.880;5.632;2024-02-26T06:35:24;6.00;99.90
63537;DHT22;49686;51.880;5.632;2024-02-26T06:37:51;6.00;99.90
63537;DHT22;49686;51.880;5.632;2024-02-26T06:40:19;5.90;99.90
63537;DHT22;49686;51.880;5.632;2024-02-26T06:42:46;5.90;99.90
63537;DHT22;49686;51.880;5.632;2024-02-26T06:45:15;5.90;99.90
63537;DHT22;49686;51.880;5.632;2024-02-26T06:47:42;5.90;99.90
63537;DHT22;49686;51.880;5.632;2024-02-26T06:50:12;5.90;99.90
63537;DHT22;49686;51.880;5.632;2024-02-26T06:52:39;5.90;99.90
63537;DHT22;49686;51.880;5.632;2024-02-26T06:55:06;5.90;99.90
63537;DHT22;49686;51.880;5.632;2024-02-26T06:57:35;5.90;99.90
63537;DHT22;49686;51.880;5.632;2024-02-26T07:00:03;5.90;99.90
63537;DHT22;49686;51.880;5.632;2024-02-26T07:02:30;6.00;99.90
63537;DHT22;49686;51.880;5.632;2024-02-26T07:04:57;5.90;99.90
63537;DHT22;49686;51.880;5.632;2024-02-26T07:07:24;5.90;99.90
63537;DHT22;49686;51.880;5.632;2024-02-26T07:09:50;5.90;99.90
63537;DHT22;49686;51.880;5.632;2024-02-26T07:12:18;5.90;99.90
63537;DHT22;49686;51.880;5.632;2024-02-26T07:14:46;6.00;99.90
63537;DHT22;49686;51.880;5.632;2024-02-26T07:17:13;5.90;99.90
63537;DHT22;49686;51.880;5.632;2024-02-26T07:19:40;5.90;99.90
63537;DHT22;49686;51.880;5.632;2024-02-26T07:22:08;5.90;99.90
63537;DHT22;49686;51.880;5.632;2024-02-26T07:24:34;5.90;99.90
63537;DHT22;49686;51.880;5.632;2024-02-26T07:27:01;5.90;99.90
63537;DHT22;49686;51.880;5.632;2024-02-26T07:29:28;5.90;99.90
63537;DHT22;49686;51.880;5.632;2024-02-26T07:31:57;5.80;99.90
63537;DHT22;49686;51.880;5.632;2024-02-26T07:34:24;5.80;99.90
63537;DHT22;49686;51.880;5.632;2024-02-26T07:36:51;5.80;99.90
63537;DHT22;49686;51.880;5.632;2024-02-26T07:39:18;5.80;99.90
63537;DHT22;49686;51.880;5.632;2024-02-26T07:41:45;5.80;99.90
63537;DHT22;49686;51.880;5.632;2024-02-26T07:44:12;5.80;99.90
63537;DHT22;49686;51.880;5.632;2024-02-26T07:46:39;5.80;99.90
63537;DHT22;49686;51.880;5.632;2024-02-26T07:49:08;5.80;99.90
63537;DHT22;49686;51.880;5.632;2024-02-26T07:51:36;5.70;99.90
63537;DHT22;49686;51.880;5.632;2024-02-26T07:54:03;5.80;99.90
63537;DHT22;49686;51.880;5.632;2024-02-26T07:56:30;5.80;99.90
63537;DHT22;49686;51.880;5.632;2024-02-26T07:58:57;5.80;99.90
63537;DHT22;49686;51.880;5.632;2024-02-26T08:01:25;5.80;99.90
63537;DHT22;49686;51.880;5.632;2024-02-26T08:03:52;5.80;99.90
63537;DHT22;49686;51.880;5.632;2024-02-26T08:06:21;5.80;99.90
63537;DHT22;49686;51.880;5.632;2024-02-26T08:08:50;5.80;99.90
63537;DHT22;49686;51.880;5.632;2024-02-26T08:11:18;5.80;99.90
63537;DHT22;49686;51.880;5.632;2024-02-26T08:13:45;5.80;99.90
63537;DHT22;49686;51.880;5.632;2024-02-26T08:16:11;5.80;99.90
63537;DHT22;49686;51.880;5.632;2024-02-26T08:18:39;5.80;99.90
63537;DHT22;49686;51.880;5.632;2024-02-26T08:21:06;5.90;99.90
63537;DHT22;49686;51.880;5.632;2024-02-26T08:23:37;5.90;99.90
63537;DHT22;49686;51.880;5.632;2024-02-26T08:26:04;5.90;99.90
63537;DHT22;49686;51.880;5.632;2024-02-26T08:28:31;5.90;99.90
63537;DHT22;49686;51.880;5.632;2024-02-26T08:30:58;5.90;99.90
63537;DHT22;49686;51.880;5.632;2024-02-26T08:33:25;5.90;99.90
63537;DHT22;49686;51.880;5.632;2024-02-26T08:35:52;5.90;99.90
63537;DHT22;49686;51.880;5.632;2024-02-26T08:38:19;5.90;99.90
63537;DHT22;49686;51.880;5.632;2024-02-26T08:40:48;5.90;99.90
63537;DHT22;49686;51.880;5.632;2024-02-26T08:43:15;6.00;99.90
63537;DHT22;49686;51.880;5.632;2024-02-26T08:45:42;6.00;99.90
63537;DHT22;49686;51.880;5.632;2024-02-26T08:48:09;6.00;99.90
63537;DHT22;49686;51.880;5.632;2024-02-26T08:50:36;6.10;99.90
63537;DHT22;49686;51.880;5.632;2024-02-26T08:53:03;6.10;99.90
63537;DHT22;49686;51.880;5.632;2024-02-26T08:55:33;6.10;99.90
63537;DHT22;49686;51.880;5.632;2024-02-26T08:58:01;6.00;99.90
63537;DHT22;49686;51.880;5.632;2024-02-26T09:00:28;6.10;99.90
63537;DHT22;49686;51.880;5.632;2024-02-26T09:02:56;6.00;99.90
63537;DHT22;49686;51.880;5.632;2024-02-26T09:05:22;6.00;99.90
63537;DHT22;49686;51.880;5.632;2024-02-26T09:07:49;6.10;99.90
63537;DHT22;49686;51.880;5.632;2024-02-26T09:10:17;6.00;99.90
63537;DHT22;49686;51.880;5.632;2024-02-26T09:12:44;6.10;99.90
63537;DHT22;49686;51.880;5.632;2024-02-26T09:15:13;6.00;99.90
63537;DHT22;49686;51.880;5.632;2024-02-26T09:17:40;6.00;99.90
63537;DHT22;49686;51.880;5.632;2024-02-26T09:20:07;6.10;99.90
63537;DHT22;49686;51.880;5.632;2024-02-26T09:22:34;6.10;99.90
63537;DHT22;49686;51.880;5.632;2024-02-26T09:25:01;6.10;99.90
63537;DHT22;49686;51.880;5.632;2024-02-26T09:27:28;6.00;99.90
63537;DHT22;49686;51.880;5.632;2024-02-26T09:29:54;6.00;99.90
63537;DHT22;49686;51.880;5.632;2024-02-26T09:32:23;6.10;99.90
63537;DHT22;49686;51.880;5.632;2024-02-26T09:34:50;6.10;99.90
63537;DHT22;49686;51.880;5.632;2024-02-26T09:37:16;6.00;99.90
63537;DHT22;49686;51.880;5.632;2024-02-26T09:39:49;6.10;99.90
63537;DHT22;49686;51.880;5.632;2024-02-26T09:42:19;6.00;99.90
63537;DHT22;49686;51.880;5.632;2024-02-26T09:44:46;6.00;99.90
63537;DHT22;49686;51.880;5.632;2024-02-26T09:47:16;6.10;99.90
63537;DHT22;49686;51.880;5.632;2024-02-26T09:49:46;6.00;99.90
63537;DHT22;49686;51.880;5.632;2024-02-26T09:52:15;6.00;99.90
63537;DHT22;49686;51.880;5.632;2024-02-26T09:54:47;6.10;99.90
63537;DHT22;49686;51.880;5.632;2024-02-26T09:57:15;6.10;99.90
63537;DHT22;49686;51.880;5.632;2024-02-26T09:59:43;6.00;99.90
63537;DHT22;49686;51.880;5.632;2024-02-26T10:02:12;6.10;99.90
63537;DHT22;49686;51.880;5.632;2024-02-26T10:04:39;6.10;99.90
63537;DHT22;49686;51.880;5.632;2024-02-26T10:07:10;6.10;99.90
63537;DHT22;49686;51.880;5.632;2024-02-26T10:09:38;6.10;99.90
63537;DHT22;49686;51.880;5.632;2024-02-26T10:12:08;6.10;99.90
63537;DHT22;49686;51.880;5.632;2024-02-26T10:14:36;6.10;99.90
63537;DHT22;49686;51.880;5.632;2024-02-26T10:17:06;6.10;99.90
63537;DHT22;49686;51.880;5.632;2024-02-26T10:19:33;6.10;99.90
63537;DHT22;49686;51.880;5.632;2024-02-26T10:22:04;6.10;99.90
63537;DHT22;49686;51.880;5.632;2024-02-26T10:24:33;6.10;99.90
63537;DHT22;49686;51.880;5.632;2024-02-26T10:27:00;6.10;99.90
63537;DHT22;49686;51.880;5.632;2024-02-26T10:29:26;6.10;99.90
63537;DHT22;49686;51.880;5.632;2024-02-26T10:31:54;6.10;99.90
63537;DHT22;49686;51.880;5.632;2024-02-26T10:34:21;6.10;99.90
63537;DHT22;49686;51.880;5.632;2024-02-26T10:36:49;6.10;99.90
63537;DHT22;49686;51.880;5.632;2024-02-26T10:39:20;6.10;99.90
63537;DHT22;49686;51.880;5.632;2024-02-26T10:41:50;6.10;99.90
63537;DHT22;49686;51.880;5.632;2024-02-26T10:44:17;6.10;99.90
63537;DHT22;49686;51.880;5.632;2024-02-26T10:46:47;6.20;99.90
63537;DHT22;49686;51.880;5.632;2024-02-26T10:49:15;6.20;99.90
63537;DHT22;49686;51.880;5.632;2024-02-26T10:51:44;6.20;99.90
63537;DHT22;49686;51.880;5.632;2024-02-26T10:54:15;6.20;99.90
63537;DHT22;49686;51.880;5.632;2024-02-26T10:56:43;6.20;99.90
63537;DHT22;49686;51.880;5.632;2024-02-26T10:59:14;6.20;99.90
63537;DHT22;49686;51.880;5.632;2024-02-26T11:01:43;6.20;99.90
63537;DHT22;49686;51.880;5.632;2024-02-26T11:04:10;6.30;99.90
63537;DHT22;49686;51.880;5.632;2024-02-26T11:06:38;6.30;99.90
63537;DHT22;49686;51.880;5.632;2024-02-26T11:09:06;6.30;99.90
63537;DHT22;49686;51.880;5.632;2024-02-26T11:11:34;6.30;99.90
63537;DHT22;49686;51.880;5.632;2024-02-26T11:14:03;6.30;99.90
63537;DHT22;49686;51.880;5.632;2024-02-26T11:16:32;6.20;99.90
63537;DHT22;49686;51.880;5.632;2024-02-26T11:19:00;6.30;99.90
63537;DHT22;49686;51.880;5.632;2024-02-26T11:21:29;6.30;99.90
63537;DHT22;49686;51.880;5.632;2024-02-26T11:23:56;6.30;99.90
63537;DHT22;49686;51.880;5.632;2024-02-26T11:26:24;6.30;99.90
63537;DHT22;49686;51.880;5.632;2024-02-26T11:28:52;6.30;99.90
63537;DHT22;49686;51.880;5.632;2024-02-26T11:31:20;6.30;99.90
63537;DHT22;49686;51.880;5.632;2024-02-26T11:33:48;6.40;99.90
63537;DHT22;49686;51.880;5.632;2024-02-26T11:36:17;6.30;99.90
63537;DHT22;49686;51.880;5.632;2024-02-26T11:38:46;6.30;99.90
63537;DHT22;49686;51.880;5.632;2024-02-26T11:41:13;6.30;99.90
63537;DHT22;49686;51.880;5.632;2024-02-26T11:43:53;6.30;99.90
63537;DHT22;49686;51.880;5.632;2024-02-26T11:46:28;6.30;99.90
63537;DHT22;49686;51.880;5.632;2024-02-26T11:48:58;6.30;99.90
63537;DHT22;49686;51.880;5.632;2024-02-26T11:51:26;6.30;99.90
63537;DHT22;49686;51.880;5.632;2024-02-26T11:53:54;6.30;99.90
63537;DHT22;49686;51.880;5.632;2024-02-26T11:56:22;6.30;99.90
63537;DHT22;49686;51.880;5.632;2024-02-26T11:59:00;6.30;99.90
63537;DHT22;49686;51.880;5.632;2024-02-26T12:01:44;6.30;99.90
63537;DHT22;49686;51.880;5.632;2024-02-26T12:04:16;6.30;99.90
63537;DHT22;49686;51.880;5.632;2024-02-26T12:06:54;6.40;99.90
63537;DHT22;49686;51.880;5.632;2024-02-26T12:09:32;6.30;99.90
63537;DHT22;49686;51.880;5.632;2024-02-26T12:12:00;6.30;99.90
63537;DHT22;49686;51.880;5.632;2024-02-26T12:14:27;6.30;99.90
63537;DHT22;49686;51.880;5.632;2024-02-26T12:16:55;6.40;99.90
63537;DHT22;49686;51.880;5.632;2024-02-26T12:19:24;6.30;99.90
63537;DHT22;49686;51.880;5.632;2024-02-26T12:21:52;6.40;99.90
63537;DHT22;49686;51.880;5.632;2024-02-26T12:24:19;6.40;99.90
63537;DHT22;49686;51.880;5.632;2024-02-26T12:26:46;6.40;99.90
63537;DHT22;49686;51.880;5.632;2024-02-26T12:29:14;6.40;99.90
63537;DHT22;49686;51.880;5.632;2024-02-26T12:31:41;6.40;99.90
63537;DHT22;49686;51.880;5.632;2024-02-26T12:34:09;6.40;99.90
63537;DHT22;49686;51.880;5.632;2024-02-26T12:36:38;6.40;99.90
63537;DHT22;49686;51.880;5.632;2024-02-26T12:39:05;6.40;99.90
63537;DHT22;49686;51.880;5.632;2024-02-26T12:41:33;6.40;99.90
63537;DHT22;49686;51.880;5.632;2024-02-26T12:44:00;6.40;99.90
63537;DHT22;49686;51.880;5.632;2024-02-26T12:46:27;6.40;99.90
63537;DHT22;49686;51.880;5.632;2024-02-26T12:48:56;6.50;99.90
63537;DHT22;49686;51.880;5.632;2024-02-26T12:51:23;6.50;99.90
63537;DHT22;49686;51.880;5.632;2024-02-26T12:53:53;6.50;99.90
63537;DHT22;49686;51.880;5.632;2024-02-26T12:56:21;6.50;99.90
63537;DHT22;49686;51.880;5.632;2024-02-26T12:58:51;6.50;99.90
63537;DHT22;49686;51.880;5.632;2024-02-26T13:01:21;6.60;99.90
63537;DHT22;49686;51.880;5.632;2024-02-26T13:03:50;6.60;99.90
63537;DHT22;49686;51.880;5.632;2024-02-26T13:06:17;6.60;99.90
63537;DHT22;49686;51.880;5.632;2024-02-26T13:08:44;6.60;99.90
63537;DHT22;49686;51.880;5.632;2024-02-26T13:11:13;6.60;99.90
63537;DHT22;49686;51.880;5.632;2024-02-26T13:13:40;6.60;99.90
63537;DHT22;49686;51.880;5.632;2024-02-26T13:16:09;6.60;99.90
63537;DHT22;49686;51.880;5.632;2024-02-26T13:18:36;6.60;99.90
63537;DHT22;49686;51.880;5.632;2024-02-26T13:21:11;6.60;99.90
63537;DHT22;49686;51.880;5.632;2024-02-26T13:23:38;6.60;99.90
63537;DHT22;49686;51.880;5.632;2024-02-26T13:26:06;6.70;99.90
63537;DHT22;49686;51.880;5.632;2024-02-26T13:28:34;6.70;99.90
63537;DHT22;49686;51.880;5.632;2024-02-26T13:31:01;6.70;99.90
63537;DHT22;49686;51.880;5.632;2024-02-26T13:33:29;6.70;99.90
63537;DHT22;49686;51.880;5.632;2024-02-26T13:35:57;6.70;99.90
63537;DHT22;49686;51.880;5.632;2024-02-26T13:38:25;6.70;99.90
63537;DHT22;49686;51.880;5.632;2024-02-26T13:40:52;6.70;99.90
63537;DHT22;49686;51.880;5.632;2024-02-26T13:43:20;6.70;99.90
63537;DHT22;49686;51.880;5.632;2024-02-26T13:45:48;6.70;99.90
63537;DHT22;49686;51.880;5.632;2024-02-26T13:48:16;6.70;99.90
63537;DHT22;49686;51.880;5.632;2024-02-26T13:50:44;6.70;99.90
63537;DHT22;49686;51.880;5.632;2024-02-26T13:53:11;6.70;99.90
63537;DHT22;49686;51.880;5.632;2024-02-26T13:55:44;6.70;99.90
63537;DHT22;49686;51.880;5.632;2024-02-26T13:58:12;6.70;99.90
63537;DHT22;49686;51.880;5.632;2024-02-26T14:00:39;6.70;99.90
63537;DHT22;49686;51.880;5.632;2024-02-26T14:03:08;6.70;99.90
63537;DHT22;49686;51.880;5.632;2024-02-26T14:05:35;6.70;99.90
63537;DHT22;49686;51.880;5.632;2024-02-26T14:08:03;6.70;99.90
63537;DHT22;49686;51.880;5.632;2024-02-26T14:10:30;6.70;99.90
63537;DHT22;49686;51.880;5.632;2024-02-26T14:12:57;6.70;99.90
63537;DHT22;49686;51.880;5.632;2024-02-26T14:15:24;6.70;99.90
63537;DHT22;49686;51.880;5.632;2024-02-26T14:17:52;6.70;99.90
63537;DHT22;49686;51.880;5.632;2024-02-26T14:20:20;6.80;99.90
63537;DHT22;49686;51.880;5.632;2024-02-26T14:22:51;6.80;99.90
63537;DHT22;49686;51.880;5.632;2024-02-26T14:25:20;6.90;99.90
63537;DHT22;49686;51.880;5.632;2024-02-26T14:27:48;6.90;99.90
63537;DHT22;49686;51.880;5.632;2024-02-26T14:30:15;6.90;99.90
63537;DHT22;49686;51.880;5.632;2024-02-26T14:32:42;7.00;99.90
63537;DHT22;49686;51.880;5.632;2024-02-26T14:35:10;7.00;99.90
63537;DHT22;49686;51.880;5.632;2024-02-26T14:37:44;7.00;99.90
63537;DHT22;49686;51.880;5.632;2024-02-26T14:40:14;7.00;99.90
63537;DHT22;49686;51.880;5.632;2024-02-26T14:42:42;7.00;99.90
63537;DHT22;49686;51.880;5.632;2024-02-26T14:45:10;7.10;99.90
63537;DHT22;49686;51.880;5.632;2024-02-26T14:47:38;7.00;99.90
63537;DHT22;49686;51.880;5.632;2024-02-26T14:50:08;7.10;99.90
63537;DHT22;49686;51.880;5.632;2024-02-26T14:52:35;7.10;99.90
63537;DHT22;49686;51.880;5.632;2024-02-26T14:55:06;7.10;99.90
63537;DHT22;49686;51.880;5.632;2024-02-26T14:57:33;7.10;99.90
63537;DHT22;49686;51.880;5.632;2024-02-26T15:00:00;7.10;99.90
63537;DHT22;49686;51.880;5.632;2024-02-26T15:02:27;7.10;99.90
63537;DHT22;49686;51.880;5.632;2024-02-26T15:04:54;7.10;99.90
63537;DHT22;49686;51.880;5.632;2024-02-26T15:07:21;7.10;99.90
63537;DHT22;49686;51.880;5.632;2024-02-26T15:09:48;7.10;99.90
63537;DHT22;49686;51.880;5.632;2024-02-26T15:12:16;7.20;99.90
63537;DHT22;49686;51.880;5.632;2024-02-26T15:14:44;7.20;99.90
63537;DHT22;49686;51.880;5.632;2024-02-26T15:17:10;7.20;99.90
63537;DHT22;49686;51.880;5.632;2024-02-26T15:19:38;7.20;99.90
63537;DHT22;49686;51.880;5.632;2024-02-26T15:22:05;7.20;99.90
63537;DHT22;49686;51.880;5.632;2024-02-26T15:24:32;7.20;99.90
63537;DHT22;49686;51.880;5.632;2024-02-26T15:27:00;7.20;99.90
63537;DHT22;49686;51.880;5.632;2024-02-26T15:29:28;7.20;99.90
63537;DHT22;49686;51.880;5.632;2024-02-26T15:31:55;7.20;99.90
63537;DHT22;49686;51.880;5.632;2024-02-26T15:34:22;7.20;99.90
63537;DHT22;49686;51.880;5.632;2024-02-26T15:36:49;7.20;99.90
63537;DHT22;49686;51.880;5.632;2024-02-26T15:39:16;7.10;99.90
63537;DHT22;49686;51.880;5.632;2024-02-26T15:41:43;7.10;99.90
63537;DHT22;49686;51.880;5.632;2024-02-26T15:44:10;7.10;99.90
63537;DHT22;49686;51.880;5.632;2024-02-26T15:46:40;7.00;99.90
63537;DHT22;49686;51.880;5.632;2024-02-26T15:49:07;7.00;99.90